< < Back
Terminal Aerodrome Forecast


Current Version              Previous Versions:   1  2  3  4  5  6  7  8  9  

Terminal Aerodrome Forecast

912
FTUS42 KFFC 192100 AAB
TAFPDK
TAF AMD
KPDK 192157Z 1922/2018 05010KT P6SM OVC035
     FM200400 06008KT P6SM OVC025
     FM201500 06010KT P6SM SCT030 BKN060=

Latest METAR

422
SAUS70 KWBC 200800 RRM
MTRPDK
METAR KPDK 200753Z AUTO 07007G15KT 10SM CLR 12/05 A3016 RMK AO2 SLP212
T01170050


USA.gov is the U.S. government's official web portal to all federal, state and local government web resources and services.